メインページ
METAR-TAF:

METAR-TAF

空港 :

キンシャサ, コンゴ

ヌジリ国際空港

緯度: 04-23S, 経度: 015-26E, 海抜: 309m

現時点の気象観測

当レポートは54分前の01:00(UTC)に作成
の風 4kt
気温 23°C
湿度 94%
気圧 1012 hPa
視程: 6000m
高度1400ftの雲は散在している
高度2800ftの雲はほとんどない, 積乱雲.
高度10000ftの千切れ雲あり
小雨

METAR: FZAA 180100Z 18004KT 6000 -RA SCT014 FEW028CB BKN100 23/22 Q1012 NOSIG

時間: 02:54 (01:54 UTC)

予報

当レポートは8時間54分前の17:00(UTC)に作成
予報は17日の 18時(UTC)から 18日の 24時(UTC)まで有効
西/南西の風 4kt
視程: 7000m
高度2000ftの雲はほとんどない
17日の 22時(UTC)から 18日の 00時(UTC)まで徐々に
高度1600ftの雲は散在している
高度2800ftの雲はほとんどない, 積乱雲.
18日の 07時(UTC)から 18日の 09時(UTC)まで徐々に
高度1800ftの千切れ雲あり
18日の 1200時(UTC)から
の風 10kt
視程10km以上
高度2400ftの雲は散在している
高度3200ftの雲はほとんどない, 積乱雲.

TAF: FZAA 171700Z 1718/1824 25004KT 7000 FEW020 BECMG 1722/1800 SCT016 FEW028CB BECMG 1807/1809 BKN018 FM181200 36010KT 9999 SCT024 FEW032CB

4,000以上の空港の気象観測と天気予報(METAR報とTAF報)

利用可能な観測所は地図上に黄色い丸と赤い丸で示す。

丸の上にカーソルを重ねると観測所名を参照できる。

次にクリックすると気象観測と天気予報を参照できる。

マップの切り替え:黒色「×」印の緑ボタンをクリックして拡大、「-」印の緑ボタンをクリックして縮小、緑色の三角印をクリックして隣りの地図に切り替え


METAR-TAF: